sensor_id;sensor_type;location;lat;lon;timestamp;temperature;humidity
24800;DHT22;12897;50.812;4.430;2023-06-22T00:01:55;22.60;99.90
24800;DHT22;12897;50.812;4.430;2023-06-22T00:04:24;22.50;99.90
24800;DHT22;12897;50.812;4.430;2023-06-22T00:06:59;22.60;99.90
24800;DHT22;12897;50.812;4.430;2023-06-22T00:09:40;22.50;99.90
24800;DHT22;12897;50.812;4.430;2023-06-22T00:12:08;22.40;99.90
24800;DHT22;12897;50.812;4.430;2023-06-22T00:14:37;22.30;99.90
24800;DHT22;12897;50.812;4.430;2023-06-22T00:17:08;22.30;99.90
24800;DHT22;12897;50.812;4.430;2023-06-22T00:19:42;22.20;99.90
24800;DHT22;12897;50.812;4.430;2023-06-22T00:22:10;22.20;99.90
24800;DHT22;12897;50.812;4.430;2023-06-22T00:24:39;22.20;99.90
24800;DHT22;12897;50.812;4.430;2023-06-22T00:27:09;22.10;99.90
24800;DHT22;12897;50.812;4.430;2023-06-22T00:29:38;22.10;99.90
24800;DHT22;12897;50.812;4.430;2023-06-22T00:32:10;22.10;99.90
24800;DHT22;12897;50.812;4.430;2023-06-22T00:34:40;22.20;99.90
24800;DHT22;12897;50.812;4.430;2023-06-22T00:37:14;22.20;99.90
24800;DHT22;12897;50.812;4.430;2023-06-22T00:39:44;22.20;99.90
24800;DHT22;12897;50.812;4.430;2023-06-22T00:42:13;22.20;99.90
24800;DHT22;12897;50.812;4.430;2023-06-22T00:44:49;22.20;99.90
24800;DHT22;12897;50.812;4.430;2023-06-22T00:47:23;22.20;99.90
24800;DHT22;12897;50.812;4.430;2023-06-22T00:49:55;22.10;99.90
24800;DHT22;12897;50.812;4.430;2023-06-22T00:52:30;22.20;99.90
24800;DHT22;12897;50.812;4.430;2023-06-22T00:55:00;22.30;99.90
24800;DHT22;12897;50.812;4.430;2023-06-22T00:57:37;22.40;99.90
24800;DHT22;12897;50.812;4.430;2023-06-22T01:00:08;22.40;99.90
24800;DHT22;12897;50.812;4.430;2023-06-22T01:02:38;22.40;99.90
24800;DHT22;12897;50.812;4.430;2023-06-22T01:05:14;22.40;99.90
24800;DHT22;12897;50.812;4.430;2023-06-22T01:10:50;22.50;99.90
24800;DHT22;12897;50.812;4.430;2023-06-22T01:16:00;22.30;99.90
24800;DHT22;12897;50.812;4.430;2023-06-22T01:18:29;22.20;99.90
24800;DHT22;12897;50.812;4.430;2023-06-22T01:21:08;22.20;99.90
24800;DHT22;12897;50.812;4.430;2023-06-22T01:23:50;22.10;99.90
24800;DHT22;12897;50.812;4.430;2023-06-22T01:26:40;22.00;99.90
24800;DHT22;12897;50.812;4.430;2023-06-22T01:29:15;22.00;99.90
24800;DHT22;12897;50.812;4.430;2023-06-22T01:31:44;22.00;99.90
24800;DHT22;12897;50.812;4.430;2023-06-22T01:34:17;21.90;99.90
24800;DHT22;12897;50.812;4.430;2023-06-22T01:36:51;22.00;99.90
24800;DHT22;12897;50.812;4.430;2023-06-22T01:39:26;21.90;99.90
24800;DHT22;12897;50.812;4.430;2023-06-22T01:42:02;21.90;99.90
24800;DHT22;12897;50.812;4.430;2023-06-22T01:44:34;22.00;99.90
24800;DHT22;12897;50.812;4.430;2023-06-22T01:47:05;21.90;99.90
24800;DHT22;12897;50.812;4.430;2023-06-22T01:49:46;21.90;99.90
24800;DHT22;12897;50.812;4.430;2023-06-22T01:52:19;21.90;99.90
24800;DHT22;12897;50.812;4.430;2023-06-22T01:54:44;21.80;99.90
24800;DHT22;12897;50.812;4.430;2023-06-22T01:57:14;21.80;99.90
24800;DHT22;12897;50.812;4.430;2023-06-22T02:00:06;21.80;99.90
24800;DHT22;12897;50.812;4.430;2023-06-22T02:02:41;21.80;99.90
24800;DHT22;12897;50.812;4.430;2023-06-22T02:05:11;21.50;99.90
24800;DHT22;12897;50.812;4.430;2023-06-22T02:07:54;21.40;99.90
24800;DHT22;12897;50.812;4.430;2023-06-22T02:10:27;21.50;99.90
24800;DHT22;12897;50.812;4.430;2023-06-22T02:12:54;21.50;99.90
24800;DHT22;12897;50.812;4.430;2023-06-22T02:15:27;21.50;99.90
24800;DHT22;12897;50.812;4.430;2023-06-22T02:18:06;21.40;99.90
24800;DHT22;12897;50.812;4.430;2023-06-22T02:20:29;21.40;99.90
24800;DHT22;12897;50.812;4.430;2023-06-22T02:23:09;21.40;99.90
24800;DHT22;12897;50.812;4.430;2023-06-22T02:25:36;21.40;99.90
24800;DHT22;12897;50.812;4.430;2023-06-22T02:28:12;21.20;99.90
24800;DHT22;12897;50.812;4.430;2023-06-22T02:30:50;21.20;99.90
24800;DHT22;12897;50.812;4.430;2023-06-22T02:33:08;21.10;99.90
24800;DHT22;12897;50.812;4.430;2023-06-22T02:35:39;21.10;99.90
24800;DHT22;12897;50.812;4.430;2023-06-22T02:38:09;21.00;99.90
24800;DHT22;12897;50.812;4.430;2023-06-22T02:40:38;21.00;99.90
24800;DHT22;12897;50.812;4.430;2023-06-22T02:43:07;21.10;99.90
24800;DHT22;12897;50.812;4.430;2023-06-22T02:45:38;21.10;99.90
24800;DHT22;12897;50.812;4.430;2023-06-22T02:48:08;21.20;99.90
24800;DHT22;12897;50.812;4.430;2023-06-22T02:50:39;21.00;99.90
24800;DHT22;12897;50.812;4.430;2023-06-22T02:53:10;21.00;99.90
24800;DHT22;12897;50.812;4.430;2023-06-22T02:55:49;20.90;99.90
24800;DHT22;12897;50.812;4.430;2023-06-22T02:58:12;20.90;99.90
24800;DHT22;12897;50.812;4.430;2023-06-22T03:00:39;20.90;99.90
24800;DHT22;12897;50.812;4.430;2023-06-22T03:03:09;20.70;99.90
24800;DHT22;12897;50.812;4.430;2023-06-22T03:05:42;20.80;99.90
24800;DHT22;12897;50.812;4.430;2023-06-22T03:08:18;20.60;99.90
24800;DHT22;12897;50.812;4.430;2023-06-22T03:10:48;20.60;99.90
24800;DHT22;12897;50.812;4.430;2023-06-22T03:13:22;20.60;99.90
24800;DHT22;12897;50.812;4.430;2023-06-22T03:16:03;20.50;99.90
24800;DHT22;12897;50.812;4.430;2023-06-22T03:18:20;20.50;99.90
24800;DHT22;12897;50.812;4.430;2023-06-22T03:20:49;20.60;99.90
24800;DHT22;12897;50.812;4.430;2023-06-22T03:23:17;20.60;99.90
24800;DHT22;12897;50.812;4.430;2023-06-22T03:26:00;20.70;99.90
24800;DHT22;12897;50.812;4.430;2023-06-22T03:28:21;20.70;99.90
24800;DHT22;12897;50.812;4.430;2023-06-22T03:30:47;20.70;99.90
24800;DHT22;12897;50.812;4.430;2023-06-22T03:33:16;20.80;99.90
24800;DHT22;12897;50.812;4.430;2023-06-22T03:35:45;20.80;99.90
24800;DHT22;12897;50.812;4.430;2023-06-22T03:38:15;20.70;99.90
24800;DHT22;12897;50.812;4.430;2023-06-22T03:40:44;20.60;99.90
24800;DHT22;12897;50.812;4.430;2023-06-22T03:43:17;20.70;99.90
24800;DHT22;12897;50.812;4.430;2023-06-22T03:45:49;20.70;99.90
24800;DHT22;12897;50.812;4.430;2023-06-22T03:48:19;20.70;99.90
24800;DHT22;12897;50.812;4.430;2023-06-22T03:50:54;20.70;99.90
24800;DHT22;12897;50.812;4.430;2023-06-22T03:53:39;20.80;99.90
24800;DHT22;12897;50.812;4.430;2023-06-22T03:59:24;20.80;99.90
24800;DHT22;12897;50.812;4.430;2023-06-22T04:01:57;20.80;99.90
24800;DHT22;12897;50.812;4.430;2023-06-22T04:04:31;20.80;99.90
24800;DHT22;12897;50.812;4.430;2023-06-22T04:07:09;20.70;99.90
24800;DHT22;12897;50.812;4.430;2023-06-22T04:12:34;21.00;99.90
24800;DHT22;12897;50.812;4.430;2023-06-22T04:15:03;21.10;99.90
24800;DHT22;12897;50.812;4.430;2023-06-22T04:17:32;21.20;99.90
24800;DHT22;12897;50.812;4.430;2023-06-22T04:20:07;21.20;99.90
24800;DHT22;12897;50.812;4.430;2023-06-22T04:22:38;21.30;99.90
24800;DHT22;12897;50.812;4.430;2023-06-22T04:25:15;21.30;99.90
24800;DHT22;12897;50.812;4.430;2023-06-22T04:27:45;21.30;99.90
24800;DHT22;12897;50.812;4.430;2023-06-22T04:30:25;21.20;99.90
24800;DHT22;12897;50.812;4.430;2023-06-22T04:33:03;21.20;99.90
24800;DHT22;12897;50.812;4.430;2023-06-22T04:35:36;21.30;99.90
24800;DHT22;12897;50.812;4.430;2023-06-22T04:38:11;21.40;99.90
24800;DHT22;12897;50.812;4.430;2023-06-22T04:40:49;21.40;99.90
24800;DHT22;12897;50.812;4.430;2023-06-22T04:43:22;21.50;99.90
24800;DHT22;12897;50.812;4.430;2023-06-22T04:45:57;21.50;99.90
24800;DHT22;12897;50.812;4.430;2023-06-22T04:48:32;21.50;99.90
24800;DHT22;12897;50.812;4.430;2023-06-22T04:51:01;21.50;99.90
24800;DHT22;12897;50.812;4.430;2023-06-22T04:53:32;21.40;99.90
24800;DHT22;12897;50.812;4.430;2023-06-22T04:55:59;21.30;99.90
24800;DHT22;12897;50.812;4.430;2023-06-22T04:58:28;21.10;99.90
24800;DHT22;12897;50.812;4.430;2023-06-22T05:00:58;21.00;99.90
24800;DHT22;12897;50.812;4.430;2023-06-22T05:03:32;21.00;99.90
24800;DHT22;12897;50.812;4.430;2023-06-22T05:05:57;20.80;99.90
24800;DHT22;12897;50.812;4.430;2023-06-22T05:08:27;20.70;99.90
24800;DHT22;12897;50.812;4.430;2023-06-22T05:10:57;20.70;99.90
24800;DHT22;12897;50.812;4.430;2023-06-22T05:13:24;20.60;99.90
24800;DHT22;12897;50.812;4.430;2023-06-22T05:15:54;20.40;99.90
24800;DHT22;12897;50.812;4.430;2023-06-22T05:18:23;20.40;99.90
24800;DHT22;12897;50.812;4.430;2023-06-22T05:20:59;20.20;99.90
24800;DHT22;12897;50.812;4.430;2023-06-22T05:23:23;20.20;99.90
24800;DHT22;12897;50.812;4.430;2023-06-22T05:25:53;19.90;99.90
24800;DHT22;12897;50.812;4.430;2023-06-22T05:28:25;19.80;99.90
24800;DHT22;12897;50.812;4.430;2023-06-22T05:30:52;19.60;99.90
24800;DHT22;12897;50.812;4.430;2023-06-22T05:33:22;19.50;99.90
24800;DHT22;12897;50.812;4.430;2023-06-22T05:35:51;19.40;99.90
24800;DHT22;12897;50.812;4.430;2023-06-22T05:38:22;19.40;99.90
24800;DHT22;12897;50.812;4.430;2023-06-22T05:40:48;19.50;99.90
24800;DHT22;12897;50.812;4.430;2023-06-22T05:43:18;19.60;99.90
24800;DHT22;12897;50.812;4.430;2023-06-22T05:45:50;19.60;99.90
24800;DHT22;12897;50.812;4.430;2023-06-22T05:48:19;19.70;99.90
24800;DHT22;12897;50.812;4.430;2023-06-22T05:50:47;19.80;99.90
24800;DHT22;12897;50.812;4.430;2023-06-22T05:53:16;19.80;99.90
24800;DHT22;12897;50.812;4.430;2023-06-22T05:55:45;19.90;99.90
24800;DHT22;12897;50.812;4.430;2023-06-22T05:58:14;19.90;99.90
24800;DHT22;12897;50.812;4.430;2023-06-22T06:00:46;20.00;99.90
24800;DHT22;12897;50.812;4.430;2023-06-22T06:03:15;20.10;99.90
24800;DHT22;12897;50.812;4.430;2023-06-22T06:05:45;20.20;99.90
24800;DHT22;12897;50.812;4.430;2023-06-22T06:08:15;20.30;99.90
24800;DHT22;12897;50.812;4.430;2023-06-22T06:10:42;20.30;99.90
24800;DHT22;12897;50.812;4.430;2023-06-22T06:13:13;20.40;99.90
24800;DHT22;12897;50.812;4.430;2023-06-22T06:15:41;20.40;99.90
24800;DHT22;12897;50.812;4.430;2023-06-22T06:18:10;20.40;99.90
24800;DHT22;12897;50.812;4.430;2023-06-22T06:20:39;20.50;99.90
24800;DHT22;12897;50.812;4.430;2023-06-22T06:23:09;20.60;99.90
24800;DHT22;12897;50.812;4.430;2023-06-22T06:25:36;20.50;99.90
24800;DHT22;12897;50.812;4.430;2023-06-22T06:28:04;20.60;99.90
24800;DHT22;12897;50.812;4.430;2023-06-22T06:30:35;20.80;99.90
24800;DHT22;12897;50.812;4.430;2023-06-22T06:33:04;20.90;99.90
24800;DHT22;12897;50.812;4.430;2023-06-22T06:38:38;21.00;99.90
24800;DHT22;12897;50.812;4.430;2023-06-22T06:41:10;21.20;99.90
24800;DHT22;12897;50.812;4.430;2023-06-22T06:43:43;21.40;99.90
24800;DHT22;12897;50.812;4.430;2023-06-22T06:46:13;21.50;99.90
24800;DHT22;12897;50.812;4.430;2023-06-22T06:48:49;21.60;99.90
24800;DHT22;12897;50.812;4.430;2023-06-22T06:51:18;21.80;99.90
24800;DHT22;12897;50.812;4.430;2023-06-22T06:53:46;21.90;99.90
24800;DHT22;12897;50.812;4.430;2023-06-22T06:56:13;21.80;99.90
24800;DHT22;12897;50.812;4.430;2023-06-22T06:58:49;22.00;99.90
24800;DHT22;12897;50.812;4.430;2023-06-22T07:01:15;22.10;99.90
24800;DHT22;12897;50.812;4.430;2023-06-22T07:03:46;22.20;99.90
24800;DHT22;12897;50.812;4.430;2023-06-22T07:06:18;22.40;99.90
24800;DHT22;12897;50.812;4.430;2023-06-22T07:08:57;22.50;99.90
24800;DHT22;12897;50.812;4.430;2023-06-22T07:11:36;22.50;99.90
24800;DHT22;12897;50.812;4.430;2023-06-22T07:14:19;22.60;99.90
24800;DHT22;12897;50.812;4.430;2023-06-22T07:16:48;22.60;99.90
24800;DHT22;12897;50.812;4.430;2023-06-22T07:19:27;22.70;99.90
24800;DHT22;12897;50.812;4.430;2023-06-22T07:24:37;22.40;99.90
24800;DHT22;12897;50.812;4.430;2023-06-22T07:27:23;22.40;99.90
24800;DHT22;12897;50.812;4.430;2023-06-22T07:29:54;22.50;99.90
24800;DHT22;12897;50.812;4.430;2023-06-22T07:32:20;22.30;99.90
24800;DHT22;12897;50.812;4.430;2023-06-22T07:37:43;22.30;99.90
24800;DHT22;12897;50.812;4.430;2023-06-22T07:40:16;22.40;99.90
24800;DHT22;12897;50.812;4.430;2023-06-22T07:45:52;22.30;99.90
24800;DHT22;12897;50.812;4.430;2023-06-22T07:48:29;22.20;99.90
24800;DHT22;12897;50.812;4.430;2023-06-22T07:51:05;22.00;99.90
24800;DHT22;12897;50.812;4.430;2023-06-22T07:53:49;21.80;99.90
24800;DHT22;12897;50.812;4.430;2023-06-22T07:56:33;21.90;99.90
24800;DHT22;12897;50.812;4.430;2023-06-22T08:04:07;21.80;99.90
24800;DHT22;12897;50.812;4.430;2023-06-22T08:09:16;22.20;99.90
24800;DHT22;12897;50.812;4.430;2023-06-22T08:19:34;22.20;99.90
24800;DHT22;12897;50.812;4.430;2023-06-22T08:22:17;22.20;99.90
24800;DHT22;12897;50.812;4.430;2023-06-22T08:24:51;22.00;99.90
24800;DHT22;12897;50.812;4.430;2023-06-22T08:27:25;21.80;99.90
24800;DHT22;12897;50.812;4.430;2023-06-22T08:33:06;21.70;99.90
24800;DHT22;12897;50.812;4.430;2023-06-22T08:35:18;21.50;99.90
24800;DHT22;12897;50.812;4.430;2023-06-22T08:40:45;21.30;99.90
24800;DHT22;12897;50.812;4.430;2023-06-22T08:43:19;21.10;99.90
24800;DHT22;12897;50.812;4.430;2023-06-22T08:45:52;21.20;99.90
24800;DHT22;12897;50.812;4.430;2023-06-22T08:51:02;21.50;99.90
24800;DHT22;12897;50.812;4.430;2023-06-22T08:53:40;21.60;99.90
24800;DHT22;12897;50.812;4.430;2023-06-22T08:58:53;21.60;99.90
24800;DHT22;12897;50.812;4.430;2023-06-22T09:01:30;21.60;99.90
24800;DHT22;12897;50.812;4.430;2023-06-22T09:04:00;21.90;99.90
24800;DHT22;12897;50.812;4.430;2023-06-22T09:06:44;22.00;99.90
24800;DHT22;12897;50.812;4.430;2023-06-22T09:11:47;22.00;99.90
24800;DHT22;12897;50.812;4.430;2023-06-22T09:17:24;22.10;99.90
24800;DHT22;12897;50.812;4.430;2023-06-22T09:19:45;22.00;99.90
24800;DHT22;12897;50.812;4.430;2023-06-22T09:22:17;22.00;99.90
24800;DHT22;12897;50.812;4.430;2023-06-22T09:24:51;22.10;99.90
24800;DHT22;12897;50.812;4.430;2023-06-22T09:27:17;22.20;99.90
24800;DHT22;12897;50.812;4.430;2023-06-22T09:29:50;22.20;99.90
24800;DHT22;12897;50.812;4.430;2023-06-22T09:32:19;22.20;99.90
24800;DHT22;12897;50.812;4.430;2023-06-22T09:34:46;22.10;99.90
24800;DHT22;12897;50.812;4.430;2023-06-22T09:37:14;21.80;99.90
24800;DHT22;12897;50.812;4.430;2023-06-22T09:39:46;21.60;99.90
24800;DHT22;12897;50.812;4.430;2023-06-22T09:42:26;21.40;99.90
24800;DHT22;12897;50.812;4.430;2023-06-22T09:45:05;21.00;99.90
24800;DHT22;12897;50.812;4.430;2023-06-22T09:47:31;20.40;99.90
24800;DHT22;12897;50.812;4.430;2023-06-22T09:49:58;19.80;99.90
24800;DHT22;12897;50.812;4.430;2023-06-22T09:52:32;19.70;99.90
24800;DHT22;12897;50.812;4.430;2023-06-22T09:54:56;19.60;99.90
24800;DHT22;12897;50.812;4.430;2023-06-22T09:57:32;19.50;99.90
24800;DHT22;12897;50.812;4.430;2023-06-22T10:00:06;19.50;99.90
24800;DHT22;12897;50.812;4.430;2023-06-22T10:02:41;19.40;99.90
24800;DHT22;12897;50.812;4.430;2023-06-22T10:05:11;19.30;99.90
24800;DHT22;12897;50.812;4.430;2023-06-22T10:07:40;19.20;99.90
24800;DHT22;12897;50.812;4.430;2023-06-22T10:10:13;19.20;99.90
24800;DHT22;12897;50.812;4.430;2023-06-22T10:12:54;19.10;99.90
24800;DHT22;12897;50.812;4.430;2023-06-22T10:15:21;19.00;99.90
24800;DHT22;12897;50.812;4.430;2023-06-22T10:18:07;19.00;99.90
24800;DHT22;12897;50.812;4.430;2023-06-22T10:20:31;19.10;99.90
24800;DHT22;12897;50.812;4.430;2023-06-22T10:23:19;18.90;99.90
24800;DHT22;12897;50.812;4.430;2023-06-22T10:25:54;18.80;99.90
24800;DHT22;12897;50.812;4.430;2023-06-22T10:28:28;18.70;99.90
24800;DHT22;12897;50.812;4.430;2023-06-22T10:31:07;18.60;99.90
24800;DHT22;12897;50.812;4.430;2023-06-22T10:33:45;18.60;99.90
24800;DHT22;12897;50.812;4.430;2023-06-22T10:36:30;18.60;99.90
24800;DHT22;12897;50.812;4.430;2023-06-22T10:39:07;18.50;99.90
24800;DHT22;12897;50.812;4.430;2023-06-22T10:41:46;18.40;99.90
24800;DHT22;12897;50.812;4.430;2023-06-22T10:44:14;18.40;99.90
24800;DHT22;12897;50.812;4.430;2023-06-22T10:46:47;18.40;99.90
24800;DHT22;12897;50.812;4.430;2023-06-22T10:51:48;18.30;99.90
24800;DHT22;12897;50.812;4.430;2023-06-22T10:54:39;18.40;99.90
24800;DHT22;12897;50.812;4.430;2023-06-22T10:59:51;18.30;99.90
24800;DHT22;12897;50.812;4.430;2023-06-22T11:10:40;18.40;99.90
24800;DHT22;12897;50.812;4.430;2023-06-22T11:13:10;18.40;99.90
24800;DHT22;12897;50.812;4.430;2023-06-22T11:18:27;18.60;99.90
24800;DHT22;12897;50.812;4.430;2023-06-22T11:21:10;18.80;99.90
24800;DHT22;12897;50.812;4.430;2023-06-22T11:23:36;18.70;99.90
24800;DHT22;12897;50.812;4.430;2023-06-22T11:26:00;18.80;99.90
24800;DHT22;12897;50.812;4.430;2023-06-22T11:28:29;18.70;99.90
24800;DHT22;12897;50.812;4.430;2023-06-22T11:30:59;18.80;99.90
24800;DHT22;12897;50.812;4.430;2023-06-22T11:33:29;18.90;99.90
24800;DHT22;12897;50.812;4.430;2023-06-22T11:36:03;18.90;99.90
24800;DHT22;12897;50.812;4.430;2023-06-22T11:38:33;19.00;99.90
24800;DHT22;12897;50.812;4.430;2023-06-22T11:41:09;19.00;99.90
24800;DHT22;12897;50.812;4.430;2023-06-22T11:43:41;19.00;99.90
24800;DHT22;12897;50.812;4.430;2023-06-22T11:46:20;19.20;99.90
24800;DHT22;12897;50.812;4.430;2023-06-22T11:48:53;19.30;99.90
24800;DHT22;12897;50.812;4.430;2023-06-22T11:51:21;19.30;99.90
24800;DHT22;12897;50.812;4.430;2023-06-22T11:53:54;19.30;99.90
24800;DHT22;12897;50.812;4.430;2023-06-22T11:56:31;19.30;99.90
24800;DHT22;12897;50.812;4.430;2023-06-22T11:58:57;19.20;99.90
24800;DHT22;12897;50.812;4.430;2023-06-22T12:01:27;19.20;99.90
24800;DHT22;12897;50.812;4.430;2023-06-22T12:04:02;19.20;99.90
24800;DHT22;12897;50.812;4.430;2023-06-22T12:06:37;19.30;99.90
24800;DHT22;12897;50.812;4.430;2023-06-22T12:09:06;19.00;99.90
24800;DHT22;12897;50.812;4.430;2023-06-22T12:11:43;19.10;99.90
24800;DHT22;12897;50.812;4.430;2023-06-22T12:14:22;19.20;99.90
24800;DHT22;12897;50.812;4.430;2023-06-22T12:31:42;19.00;99.90
24800;DHT22;12897;50.812;4.430;2023-06-22T12:34:21;18.90;99.90
24800;DHT22;12897;50.812;4.430;2023-06-22T12:36:47;18.90;99.90
24800;DHT22;12897;50.812;4.430;2023-06-22T12:39:44;18.90;99.90
24800;DHT22;12897;50.812;4.430;2023-06-22T12:44:40;18.80;99.90
24800;DHT22;12897;50.812;4.430;2023-06-22T12:47:07;18.80;99.90
24800;DHT22;12897;50.812;4.430;2023-06-22T12:49:40;18.80;99.90
24800;DHT22;12897;50.812;4.430;2023-06-22T12:52:16;18.80;99.90
24800;DHT22;12897;50.812;4.430;2023-06-22T12:54:48;18.60;99.90
24800;DHT22;12897;50.812;4.430;2023-06-22T12:57:23;18.60;99.90
24800;DHT22;12897;50.812;4.430;2023-06-22T12:59:57;18.70;99.90
24800;DHT22;12897;50.812;4.430;2023-06-22T13:02:27;18.70;99.90
24800;DHT22;12897;50.812;4.430;2023-06-22T13:05:10;18.70;99.90
24800;DHT22;12897;50.812;4.430;2023-06-22T13:07:33;18.80;99.90
24800;DHT22;12897;50.812;4.430;2023-06-22T13:09:59;18.70;99.90
24800;DHT22;12897;50.812;4.430;2023-06-22T13:12:30;18.70;99.90
24800;DHT22;12897;50.812;4.430;2023-06-22T13:14:59;18.80;99.90
24800;DHT22;12897;50.812;4.430;2023-06-22T13:17:35;18.80;99.90
24800;DHT22;12897;50.812;4.430;2023-06-22T13:20:08;18.70;99.90
24800;DHT22;12897;50.812;4.430;2023-06-22T13:22:38;18.60;99.90
24800;DHT22;12897;50.812;4.430;2023-06-22T13:25:11;18.70;99.90
24800;DHT22;12897;50.812;4.430;2023-06-22T13:27:45;18.80;99.90
24800;DHT22;12897;50.812;4.430;2023-06-22T13:30:18;18.80;99.90
24800;DHT22;12897;50.812;4.430;2023-06-22T13:32:46;18.80;99.90
24800;DHT22;12897;50.812;4.430;2023-06-22T13:35:20;18.90;99.90
24800;DHT22;12897;50.812;4.430;2023-06-22T13:37:49;18.80;99.90
24800;DHT22;12897;50.812;4.430;2023-06-22T13:40:19;18.90;99.90
24800;DHT22;12897;50.812;4.430;2023-06-22T13:42:50;19.00;99.90
24800;DHT22;12897;50.812;4.430;2023-06-22T13:45:21;18.90;99.90
24800;DHT22;12897;50.812;4.430;2023-06-22T13:50:26;18.60;99.90
24800;DHT22;12897;50.812;4.430;2023-06-22T13:53:00;18.60;99.90
24800;DHT22;12897;50.812;4.430;2023-06-22T13:55:31;18.60;99.90
24800;DHT22;12897;50.812;4.430;2023-06-22T13:58:00;18.50;99.90
24800;DHT22;12897;50.812;4.430;2023-06-22T14:00:29;18.50;99.90
24800;DHT22;12897;50.812;4.430;2023-06-22T14:03:01;18.50;99.90
24800;DHT22;12897;50.812;4.430;2023-06-22T14:05:30;18.40;99.90
24800;DHT22;12897;50.812;4.430;2023-06-22T14:08:03;18.50;99.90
24800;DHT22;12897;50.812;4.430;2023-06-22T14:10:34;18.40;99.90
24800;DHT22;12897;50.812;4.430;2023-06-22T14:13:03;18.40;99.90
24800;DHT22;12897;50.812;4.430;2023-06-22T14:15:35;18.50;99.90
24800;DHT22;12897;50.812;4.430;2023-06-22T14:18:04;18.50;99.90
24800;DHT22;12897;50.812;4.430;2023-06-22T14:20:38;18.40;99.90
24800;DHT22;12897;50.812;4.430;2023-06-22T14:23:04;18.50;99.90
24800;DHT22;12897;50.812;4.430;2023-06-22T14:25:35;18.50;99.90
24800;DHT22;12897;50.812;4.430;2023-06-22T14:28:09;18.40;99.90
24800;DHT22;12897;50.812;4.430;2023-06-22T14:30:33;18.40;99.90
24800;DHT22;12897;50.812;4.430;2023-06-22T14:33:12;18.40;99.90
24800;DHT22;12897;50.812;4.430;2023-06-22T14:35:46;18.40;99.90
24800;DHT22;12897;50.812;4.430;2023-06-22T14:38:23;18.40;99.90
24800;DHT22;12897;50.812;4.430;2023-06-22T14:40:53;18.30;99.90
24800;DHT22;12897;50.812;4.430;2023-06-22T14:43:22;18.30;99.90
24800;DHT22;12897;50.812;4.430;2023-06-22T14:45:51;18.30;99.90
24800;DHT22;12897;50.812;4.430;2023-06-22T14:48:22;18.30;99.90
24800;DHT22;12897;50.812;4.430;2023-06-22T14:50:56;18.30;99.90
24800;DHT22;12897;50.812;4.430;2023-06-22T14:53:37;18.40;99.90
24800;DHT22;12897;50.812;4.430;2023-06-22T14:56:01;18.40;99.90
24800;DHT22;12897;50.812;4.430;2023-06-22T14:58:35;18.40;99.90
24800;DHT22;12897;50.812;4.430;2023-06-22T15:01:11;18.40;99.90
24800;DHT22;12897;50.812;4.430;2023-06-22T15:03:37;18.40;99.90
24800;DHT22;12897;50.812;4.430;2023-06-22T15:06:05;18.40;99.90
24800;DHT22;12897;50.812;4.430;2023-06-22T15:08:34;18.50;99.90
24800;DHT22;12897;50.812;4.430;2023-06-22T15:11:01;18.60;99.90
24800;DHT22;12897;50.812;4.430;2023-06-22T15:13:31;18.60;99.90
24800;DHT22;12897;50.812;4.430;2023-06-22T15:16:03;18.70;99.90
24800;DHT22;12897;50.812;4.430;2023-06-22T15:18:31;18.70;99.90
24800;DHT22;12897;50.812;4.430;2023-06-22T15:21:02;18.70;99.90
24800;DHT22;12897;50.812;4.430;2023-06-22T15:23:32;18.60;99.90
24800;DHT22;12897;50.812;4.430;2023-06-22T15:26:03;18.60;99.90
24800;DHT22;12897;50.812;4.430;2023-06-22T15:28:34;18.70;99.90
24800;DHT22;12897;50.812;4.430;2023-06-22T15:31:06;18.80;99.90
24800;DHT22;12897;50.812;4.430;2023-06-22T15:33:35;18.70;99.90
24800;DHT22;12897;50.812;4.430;2023-06-22T15:36:05;18.80;99.90
24800;DHT22;12897;50.812;4.430;2023-06-22T15:38:34;18.80;99.90
24800;DHT22;12897;50.812;4.430;2023-06-22T15:41:04;18.90;99.90
24800;DHT22;12897;50.812;4.430;2023-06-22T15:43:31;18.90;99.90
24800;DHT22;12897;50.812;4.430;2023-06-22T15:46:01;19.00;99.90
24800;DHT22;12897;50.812;4.430;2023-06-22T15:48:29;19.00;99.90
24800;DHT22;12897;50.812;4.430;2023-06-22T15:50:57;19.00;99.90
24800;DHT22;12897;50.812;4.430;2023-06-22T15:53:25;19.00;99.90
24800;DHT22;12897;50.812;4.430;2023-06-22T15:55:53;19.00;99.90
24800;DHT22;12897;50.812;4.430;2023-06-22T15:58:21;19.10;99.90
24800;DHT22;12897;50.812;4.430;2023-06-22T16:00:53;19.10;99.90
24800;DHT22;12897;50.812;4.430;2023-06-22T16:03:20;19.20;99.90
24800;DHT22;12897;50.812;4.430;2023-06-22T16:05:48;19.10;99.90
24800;DHT22;12897;50.812;4.430;2023-06-22T16:08:25;19.00;99.90
24800;DHT22;12897;50.812;4.430;2023-06-22T16:10:56;19.10;99.90
24800;DHT22;12897;50.812;4.430;2023-06-22T16:13:23;19.10;99.90
24800;DHT22;12897;50.812;4.430;2023-06-22T16:15:51;19.10;99.90
24800;DHT22;12897;50.812;4.430;2023-06-22T16:18:24;19.00;99.90
24800;DHT22;12897;50.812;4.430;2023-06-22T16:20:50;19.10;99.90
24800;DHT22;12897;50.812;4.430;2023-06-22T16:23:18;19.20;99.90
24800;DHT22;12897;50.812;4.430;2023-06-22T16:25:48;19.30;99.90
24800;DHT22;12897;50.812;4.430;2023-06-22T16:28:16;19.30;99.90
24800;DHT22;12897;50.812;4.430;2023-06-22T16:31:05;19.30;99.90
24800;DHT22;12897;50.812;4.430;2023-06-22T16:33:18;19.30;99.90
24800;DHT22;12897;50.812;4.430;2023-06-22T16:35:56;19.30;99.90
24800;DHT22;12897;50.812;4.430;2023-06-22T16:38:21;19.40;99.90
24800;DHT22;12897;50.812;4.430;2023-06-22T16:40:49;19.50;99.90
24800;DHT22;12897;50.812;4.430;2023-06-22T16:43:24;19.40;99.90
24800;DHT22;12897;50.812;4.430;2023-06-22T16:45:57;19.40;99.90
24800;DHT22;12897;50.812;4.430;2023-06-22T16:48:25;19.40;99.90
24800;DHT22;12897;50.812;4.430;2023-06-22T16:50:57;19.40;99.90
24800;DHT22;12897;50.812;4.430;2023-06-22T16:53:22;19.40;99.90
24800;DHT22;12897;50.812;4.430;2023-06-22T16:55:54;19.40;99.90
24800;DHT22;12897;50.812;4.430;2023-06-22T16:58:24;19.40;99.90
24800;DHT22;12897;50.812;4.430;2023-06-22T17:00:53;19.30;99.90
24800;DHT22;12897;50.812;4.430;2023-06-22T17:03:28;19.40;99.90
24800;DHT22;12897;50.812;4.430;2023-06-22T17:05:57;19.30;99.90
24800;DHT22;12897;50.812;4.430;2023-06-22T17:08:40;19.40;99.90
24800;DHT22;12897;50.812;4.430;2023-06-22T17:11:15;19.30;99.90
24800;DHT22;12897;50.812;4.430;2023-06-22T17:13:43;19.40;99.90
24800;DHT22;12897;50.812;4.430;2023-06-22T17:16:14;19.40;99.90
24800;DHT22;12897;50.812;4.430;2023-06-22T17:18:42;19.50;99.90
24800;DHT22;12897;50.812;4.430;2023-06-22T17:21:28;19.60;99.90
24800;DHT22;12897;50.812;4.430;2023-06-22T17:23:51;19.60;99.90
24800;DHT22;12897;50.812;4.430;2023-06-22T17:26:29;19.70;99.90
24800;DHT22;12897;50.812;4.430;2023-06-22T17:28:58;19.70;99.90
24800;DHT22;12897;50.812;4.430;2023-06-22T17:31:41;19.70;99.90